sensor_id;sensor_type;location;lat;lon;timestamp;temperature;humidity
18384;DHT22;9318;48.644;9.456;2022-10-22T00:02:19;14.50;99.90
18384;DHT22;9318;48.644;9.456;2022-10-22T00:04:47;14.50;99.90
18384;DHT22;9318;48.644;9.456;2022-10-22T00:07:17;14.40;99.90
18384;DHT22;9318;48.644;9.456;2022-10-22T00:09:44;14.40;99.90
18384;DHT22;9318;48.644;9.456;2022-10-22T00:12:12;14.40;99.90
18384;DHT22;9318;48.644;9.456;2022-10-22T00:14:40;14.30;99.90
18384;DHT22;9318;48.644;9.456;2022-10-22T00:17:07;14.30;99.90
18384;DHT22;9318;48.644;9.456;2022-10-22T00:19:34;14.20;99.90
18384;DHT22;9318;48.644;9.456;2022-10-22T00:22:01;14.20;99.90
18384;DHT22;9318;48.644;9.456;2022-10-22T00:24:32;14.20;99.90
18384;DHT22;9318;48.644;9.456;2022-10-22T00:26:59;14.20;99.90
18384;DHT22;9318;48.644;9.456;2022-10-22T00:29:27;14.10;99.90
18384;DHT22;9318;48.644;9.456;2022-10-22T00:31:54;14.10;99.90
18384;DHT22;9318;48.644;9.456;2022-10-22T00:34:22;14.10;99.90
18384;DHT22;9318;48.644;9.456;2022-10-22T00:36:50;14.10;99.90
18384;DHT22;9318;48.644;9.456;2022-10-22T00:39:20;14.10;99.90
18384;DHT22;9318;48.644;9.456;2022-10-22T00:41:51;14.20;99.90
18384;DHT22;9318;48.644;9.456;2022-10-22T00:47:24;14.20;99.90
18384;DHT22;9318;48.644;9.456;2022-10-22T00:49:55;14.20;99.90
18384;DHT22;9318;48.644;9.456;2022-10-22T00:52:23;14.20;99.90
18384;DHT22;9318;48.644;9.456;2022-10-22T00:54:51;14.20;99.90
18384;DHT22;9318;48.644;9.456;2022-10-22T00:57:20;14.20;99.90
18384;DHT22;9318;48.644;9.456;2022-10-22T00:59:48;14.30;99.90
18384;DHT22;9318;48.644;9.456;2022-10-22T01:02:15;14.30;99.90
18384;DHT22;9318;48.644;9.456;2022-10-22T01:04:43;14.40;99.90
18384;DHT22;9318;48.644;9.456;2022-10-22T01:07:15;14.40;99.90
18384;DHT22;9318;48.644;9.456;2022-10-22T01:09:49;14.40;99.90
18384;DHT22;9318;48.644;9.456;2022-10-22T01:12:25;14.50;99.90
18384;DHT22;9318;48.644;9.456;2022-10-22T01:15:14;14.50;99.90
18384;DHT22;9318;48.644;9.456;2022-10-22T01:17:51;14.50;99.90
18384;DHT22;9318;48.644;9.456;2022-10-22T01:20:43;14.50;99.90
18384;DHT22;9318;48.644;9.456;2022-10-22T01:26:07;14.40;99.90
18384;DHT22;9318;48.644;9.456;2022-10-22T01:28:51;14.40;99.90
18384;DHT22;9318;48.644;9.456;2022-10-22T01:31:21;14.40;99.90
18384;DHT22;9318;48.644;9.456;2022-10-22T01:33:50;14.40;99.90
18384;DHT22;9318;48.644;9.456;2022-10-22T01:36:20;14.40;99.90
18384;DHT22;9318;48.644;9.456;2022-10-22T01:38:49;14.40;99.90
18384;DHT22;9318;48.644;9.456;2022-10-22T01:41:17;14.30;99.90
18384;DHT22;9318;48.644;9.456;2022-10-22T01:43:46;14.30;99.90
18384;DHT22;9318;48.644;9.456;2022-10-22T01:46:13;14.30;99.90
18384;DHT22;9318;48.644;9.456;2022-10-22T01:48:52;14.30;99.90
18384;DHT22;9318;48.644;9.456;2022-10-22T01:51:33;14.30;99.90
18384;DHT22;9318;48.644;9.456;2022-10-22T01:54:13;14.30;99.90
18384;DHT22;9318;48.644;9.456;2022-10-22T01:56:52;14.30;99.90
18384;DHT22;9318;48.644;9.456;2022-10-22T01:59:32;14.30;99.90
18384;DHT22;9318;48.644;9.456;2022-10-22T02:02:05;14.30;99.90
18384;DHT22;9318;48.644;9.456;2022-10-22T02:04:42;14.20;99.90
18384;DHT22;9318;48.644;9.456;2022-10-22T02:07:14;14.20;99.90
18384;DHT22;9318;48.644;9.456;2022-10-22T02:09:42;14.10;99.90
18384;DHT22;9318;48.644;9.456;2022-10-22T02:12:11;14.00;99.90
18384;DHT22;9318;48.644;9.456;2022-10-22T02:14:42;13.90;99.90
18384;DHT22;9318;48.644;9.456;2022-10-22T02:17:13;13.90;99.90
18384;DHT22;9318;48.644;9.456;2022-10-22T02:19:46;13.90;99.90
18384;DHT22;9318;48.644;9.456;2022-10-22T02:22:17;14.00;99.90
18384;DHT22;9318;48.644;9.456;2022-10-22T02:24:44;14.00;99.90
18384;DHT22;9318;48.644;9.456;2022-10-22T02:27:19;14.00;99.90
18384;DHT22;9318;48.644;9.456;2022-10-22T02:29:53;14.00;99.90
18384;DHT22;9318;48.644;9.456;2022-10-22T02:32:25;14.00;99.90
18384;DHT22;9318;48.644;9.456;2022-10-22T02:34:55;14.00;99.90
18384;DHT22;9318;48.644;9.456;2022-10-22T02:37:24;13.90;99.90
18384;DHT22;9318;48.644;9.456;2022-10-22T02:39:52;14.00;99.90
18384;DHT22;9318;48.644;9.456;2022-10-22T02:42:22;14.00;99.90
18384;DHT22;9318;48.644;9.456;2022-10-22T02:44:52;14.00;99.90
18384;DHT22;9318;48.644;9.456;2022-10-22T02:47:27;13.90;99.90
18384;DHT22;9318;48.644;9.456;2022-10-22T02:49:57;13.90;99.90
18384;DHT22;9318;48.644;9.456;2022-10-22T02:52:24;13.90;99.90
18384;DHT22;9318;48.644;9.456;2022-10-22T02:54:51;13.90;99.90
18384;DHT22;9318;48.644;9.456;2022-10-22T02:57:18;13.90;99.90
18384;DHT22;9318;48.644;9.456;2022-10-22T02:59:46;14.00;99.90
18384;DHT22;9318;48.644;9.456;2022-10-22T03:02:14;14.00;99.90
18384;DHT22;9318;48.644;9.456;2022-10-22T03:04:41;14.00;99.90
18384;DHT22;9318;48.644;9.456;2022-10-22T03:07:09;14.00;99.90
18384;DHT22;9318;48.644;9.456;2022-10-22T03:09:36;14.00;99.90
18384;DHT22;9318;48.644;9.456;2022-10-22T03:12:04;14.00;99.90
18384;DHT22;9318;48.644;9.456;2022-10-22T03:14:33;14.00;99.90
18384;DHT22;9318;48.644;9.456;2022-10-22T03:17:00;14.00;99.90
18384;DHT22;9318;48.644;9.456;2022-10-22T03:19:29;14.10;99.90
18384;DHT22;9318;48.644;9.456;2022-10-22T03:21:58;14.10;99.90
18384;DHT22;9318;48.644;9.456;2022-10-22T03:24:29;14.10;99.90
18384;DHT22;9318;48.644;9.456;2022-10-22T03:26:57;14.10;99.90
18384;DHT22;9318;48.644;9.456;2022-10-22T03:29:25;14.10;99.90
18384;DHT22;9318;48.644;9.456;2022-10-22T03:31:54;14.10;99.90
18384;DHT22;9318;48.644;9.456;2022-10-22T03:34:21;14.10;99.90
18384;DHT22;9318;48.644;9.456;2022-10-22T03:36:50;14.10;99.90
18384;DHT22;9318;48.644;9.456;2022-10-22T03:39:19;14.10;99.90
18384;DHT22;9318;48.644;9.456;2022-10-22T03:41:47;14.10;99.90
18384;DHT22;9318;48.644;9.456;2022-10-22T03:44:16;14.10;99.90
18384;DHT22;9318;48.644;9.456;2022-10-22T03:46:43;14.00;99.90
18384;DHT22;9318;48.644;9.456;2022-10-22T03:49:11;14.00;99.90
18384;DHT22;9318;48.644;9.456;2022-10-22T03:51:38;14.00;99.90
18384;DHT22;9318;48.644;9.456;2022-10-22T03:54:06;14.00;99.90
18384;DHT22;9318;48.644;9.456;2022-10-22T03:56:34;14.00;99.90
18384;DHT22;9318;48.644;9.456;2022-10-22T03:59:01;14.00;99.90
18384;DHT22;9318;48.644;9.456;2022-10-22T04:01:29;14.00;99.90
18384;DHT22;9318;48.644;9.456;2022-10-22T04:03:57;14.00;99.90
18384;DHT22;9318;48.644;9.456;2022-10-22T04:06:24;14.00;99.90
18384;DHT22;9318;48.644;9.456;2022-10-22T04:08:51;14.00;99.90
18384;DHT22;9318;48.644;9.456;2022-10-22T04:11:20;14.10;99.90
18384;DHT22;9318;48.644;9.456;2022-10-22T04:13:47;14.10;99.90
18384;DHT22;9318;48.644;9.456;2022-10-22T04:16:16;14.10;99.90
18384;DHT22;9318;48.644;9.456;2022-10-22T04:18:45;14.10;99.90
18384;DHT22;9318;48.644;9.456;2022-10-22T04:21:14;14.10;99.90
18384;DHT22;9318;48.644;9.456;2022-10-22T04:23:43;14.10;99.90
18384;DHT22;9318;48.644;9.456;2022-10-22T04:26:11;14.00;99.90
18384;DHT22;9318;48.644;9.456;2022-10-22T04:28:40;13.90;99.90
18384;DHT22;9318;48.644;9.456;2022-10-22T04:31:08;13.90;99.90
18384;DHT22;9318;48.644;9.456;2022-10-22T04:33:36;13.90;99.90
18384;DHT22;9318;48.644;9.456;2022-10-22T04:36:07;14.00;99.90
18384;DHT22;9318;48.644;9.456;2022-10-22T04:38:35;14.00;99.90
18384;DHT22;9318;48.644;9.456;2022-10-22T04:41:09;13.80;99.90
18384;DHT22;9318;48.644;9.456;2022-10-22T04:43:37;13.80;99.90
18384;DHT22;9318;48.644;9.456;2022-10-22T04:46:05;13.70;99.90
18384;DHT22;9318;48.644;9.456;2022-10-22T04:48:34;13.70;99.90
18384;DHT22;9318;48.644;9.456;2022-10-22T04:51:02;13.70;99.90
18384;DHT22;9318;48.644;9.456;2022-10-22T04:53:30;13.80;99.90
18384;DHT22;9318;48.644;9.456;2022-10-22T04:56:06;13.80;99.90
18384;DHT22;9318;48.644;9.456;2022-10-22T04:58:33;13.80;99.90
18384;DHT22;9318;48.644;9.456;2022-10-22T05:01:10;13.80;99.90
18384;DHT22;9318;48.644;9.456;2022-10-22T05:03:37;13.80;99.90
18384;DHT22;9318;48.644;9.456;2022-10-22T05:06:05;13.80;99.90
18384;DHT22;9318;48.644;9.456;2022-10-22T05:08:32;13.90;99.90
18384;DHT22;9318;48.644;9.456;2022-10-22T05:10:59;13.90;99.90
18384;DHT22;9318;48.644;9.456;2022-10-22T05:13:26;13.80;99.90
18384;DHT22;9318;48.644;9.456;2022-10-22T05:15:53;13.80;99.90
18384;DHT22;9318;48.644;9.456;2022-10-22T05:18:22;13.80;99.90
18384;DHT22;9318;48.644;9.456;2022-10-22T05:20:49;13.70;99.90
18384;DHT22;9318;48.644;9.456;2022-10-22T05:23:16;13.70;99.90
18384;DHT22;9318;48.644;9.456;2022-10-22T05:25:43;13.70;99.90
18384;DHT22;9318;48.644;9.456;2022-10-22T05:28:11;13.80;99.90
18384;DHT22;9318;48.644;9.456;2022-10-22T05:30:38;13.80;99.90
18384;DHT22;9318;48.644;9.456;2022-10-22T05:33:05;13.80;99.90
18384;DHT22;9318;48.644;9.456;2022-10-22T05:35:34;13.80;99.90
18384;DHT22;9318;48.644;9.456;2022-10-22T05:38:01;13.70;99.90
18384;DHT22;9318;48.644;9.456;2022-10-22T05:40:28;13.70;99.90
18384;DHT22;9318;48.644;9.456;2022-10-22T05:42:57;13.60;99.90
18384;DHT22;9318;48.644;9.456;2022-10-22T05:45:23;13.70;99.90
18384;DHT22;9318;48.644;9.456;2022-10-22T05:47:50;13.70;99.90
18384;DHT22;9318;48.644;9.456;2022-10-22T05:50:18;13.80;99.90
18384;DHT22;9318;48.644;9.456;2022-10-22T05:52:46;13.80;99.90
18384;DHT22;9318;48.644;9.456;2022-10-22T05:55:13;13.80;99.90
18384;DHT22;9318;48.644;9.456;2022-10-22T05:57:41;13.70;99.90
18384;DHT22;9318;48.644;9.456;2022-10-22T06:00:09;13.70;99.90
18384;DHT22;9318;48.644;9.456;2022-10-22T06:02:36;13.80;99.90
18384;DHT22;9318;48.644;9.456;2022-10-22T06:05:06;13.70;99.90
18384;DHT22;9318;48.644;9.456;2022-10-22T06:07:33;13.80;99.90
18384;DHT22;9318;48.644;9.456;2022-10-22T06:10:02;13.80;99.90
18384;DHT22;9318;48.644;9.456;2022-10-22T06:12:30;13.80;99.90
18384;DHT22;9318;48.644;9.456;2022-10-22T06:14:57;13.90;99.90
18384;DHT22;9318;48.644;9.456;2022-10-22T06:17:24;13.90;99.90
18384;DHT22;9318;48.644;9.456;2022-10-22T06:19:51;14.00;99.90
18384;DHT22;9318;48.644;9.456;2022-10-22T06:22:18;13.90;99.90
18384;DHT22;9318;48.644;9.456;2022-10-22T06:24:45;13.90;99.90
18384;DHT22;9318;48.644;9.456;2022-10-22T06:27:14;13.90;99.90
18384;DHT22;9318;48.644;9.456;2022-10-22T06:29:41;13.90;99.90
18384;DHT22;9318;48.644;9.456;2022-10-22T06:32:08;13.80;99.90
18384;DHT22;9318;48.644;9.456;2022-10-22T06:34:35;13.80;99.90
18384;DHT22;9318;48.644;9.456;2022-10-22T06:37:02;13.80;99.90
18384;DHT22;9318;48.644;9.456;2022-10-22T06:39:29;13.80;99.90
18384;DHT22;9318;48.644;9.456;2022-10-22T06:41:56;14.00;99.90
18384;DHT22;9318;48.644;9.456;2022-10-22T06:44:25;14.10;99.90
18384;DHT22;9318;48.644;9.456;2022-10-22T06:46:52;14.10;99.90
18384;DHT22;9318;48.644;9.456;2022-10-22T06:49:20;14.10;99.90
18384;DHT22;9318;48.644;9.456;2022-10-22T06:51:49;14.10;99.90
18384;DHT22;9318;48.644;9.456;2022-10-22T06:54:16;14.20;99.90
18384;DHT22;9318;48.644;9.456;2022-10-22T06:56:44;14.20;99.90
18384;DHT22;9318;48.644;9.456;2022-10-22T06:59:11;14.30;99.90
18384;DHT22;9318;48.644;9.456;2022-10-22T07:01:40;14.30;99.90
18384;DHT22;9318;48.644;9.456;2022-10-22T07:04:09;14.30;99.90
18384;DHT22;9318;48.644;9.456;2022-10-22T07:06:36;14.30;99.90
18384;DHT22;9318;48.644;9.456;2022-10-22T07:09:03;14.40;99.90
18384;DHT22;9318;48.644;9.456;2022-10-22T07:11:38;14.40;99.90
18384;DHT22;9318;48.644;9.456;2022-10-22T07:14:06;14.40;99.90
18384;DHT22;9318;48.644;9.456;2022-10-22T07:16:33;14.40;99.90
18384;DHT22;9318;48.644;9.456;2022-10-22T07:19:03;14.40;99.90
18384;DHT22;9318;48.644;9.456;2022-10-22T07:21:30;14.40;99.90
18384;DHT22;9318;48.644;9.456;2022-10-22T07:23:57;14.40;99.90
18384;DHT22;9318;48.644;9.456;2022-10-22T07:26:25;14.40;99.90
18384;DHT22;9318;48.644;9.456;2022-10-22T07:28:55;14.50;99.90
18384;DHT22;9318;48.644;9.456;2022-10-22T07:31:22;14.50;99.90
18384;DHT22;9318;48.644;9.456;2022-10-22T07:33:50;14.50;99.90
18384;DHT22;9318;48.644;9.456;2022-10-22T07:36:18;14.50;99.90
18384;DHT22;9318;48.644;9.456;2022-10-22T07:38:47;14.40;99.90
18384;DHT22;9318;48.644;9.456;2022-10-22T07:41:16;14.50;99.90
18384;DHT22;9318;48.644;9.456;2022-10-22T07:43:43;14.60;99.90
18384;DHT22;9318;48.644;9.456;2022-10-22T07:46:11;14.70;99.90
18384;DHT22;9318;48.644;9.456;2022-10-22T07:48:38;14.80;99.90
18384;DHT22;9318;48.644;9.456;2022-10-22T07:51:06;14.80;99.90
18384;DHT22;9318;48.644;9.456;2022-10-22T07:53:34;14.90;99.90
18384;DHT22;9318;48.644;9.456;2022-10-22T07:56:02;14.90;99.90
18384;DHT22;9318;48.644;9.456;2022-10-22T07:58:30;15.00;99.90
18384;DHT22;9318;48.644;9.456;2022-10-22T08:00:58;15.00;99.90
18384;DHT22;9318;48.644;9.456;2022-10-22T08:03:27;15.10;99.90
18384;DHT22;9318;48.644;9.456;2022-10-22T08:05:55;15.10;99.90
18384;DHT22;9318;48.644;9.456;2022-10-22T08:08:22;15.20;99.90
18384;DHT22;9318;48.644;9.456;2022-10-22T08:10:52;15.30;99.90
18384;DHT22;9318;48.644;9.456;2022-10-22T08:13:19;15.30;99.90
18384;DHT22;9318;48.644;9.456;2022-10-22T08:15:46;15.40;99.90
18384;DHT22;9318;48.644;9.456;2022-10-22T08:18:13;15.30;99.90
18384;DHT22;9318;48.644;9.456;2022-10-22T08:20:41;15.30;99.90
18384;DHT22;9318;48.644;9.456;2022-10-22T08:23:08;15.40;99.90
18384;DHT22;9318;48.644;9.456;2022-10-22T08:25:35;15.40;99.90
18384;DHT22;9318;48.644;9.456;2022-10-22T08:28:04;15.40;99.90
18384;DHT22;9318;48.644;9.456;2022-10-22T08:30:32;15.40;99.90
18384;DHT22;9318;48.644;9.456;2022-10-22T08:33:00;15.50;99.90
18384;DHT22;9318;48.644;9.456;2022-10-22T08:35:27;15.60;99.90
18384;DHT22;9318;48.644;9.456;2022-10-22T08:40:25;15.70;99.90
18384;DHT22;9318;48.644;9.456;2022-10-22T08:43:22;15.80;99.90
18384;DHT22;9318;48.644;9.456;2022-10-22T08:45:58;15.90;99.90
18384;DHT22;9318;48.644;9.456;2022-10-22T08:48:41;15.90;99.90
18384;DHT22;9318;48.644;9.456;2022-10-22T08:51:14;16.00;99.90
18384;DHT22;9318;48.644;9.456;2022-10-22T08:53:52;16.00;99.90
18384;DHT22;9318;48.644;9.456;2022-10-22T08:56:25;16.00;99.90
18384;DHT22;9318;48.644;9.456;2022-10-22T08:58:59;16.00;99.90
18384;DHT22;9318;48.644;9.456;2022-10-22T09:01:34;16.00;99.90
18384;DHT22;9318;48.644;9.456;2022-10-22T09:04:10;16.00;99.90
18384;DHT22;9318;48.644;9.456;2022-10-22T09:06:40;15.90;99.90
18384;DHT22;9318;48.644;9.456;2022-10-22T09:09:11;15.90;99.90
18384;DHT22;9318;48.644;9.456;2022-10-22T09:11:43;16.00;99.90
18384;DHT22;9318;48.644;9.456;2022-10-22T09:14:14;16.00;99.90
18384;DHT22;9318;48.644;9.456;2022-10-22T09:16:56;16.00;99.90
18384;DHT22;9318;48.644;9.456;2022-10-22T09:19:33;16.00;99.90
18384;DHT22;9318;48.644;9.456;2022-10-22T09:22:11;16.00;99.90
18384;DHT22;9318;48.644;9.456;2022-10-22T09:24:45;16.10;99.90
18384;DHT22;9318;48.644;9.456;2022-10-22T09:27:14;16.10;99.90
18384;DHT22;9318;48.644;9.456;2022-10-22T09:29:44;16.20;99.90
18384;DHT22;9318;48.644;9.456;2022-10-22T09:32:12;16.30;99.90
18384;DHT22;9318;48.644;9.456;2022-10-22T09:34:41;16.40;99.90
18384;DHT22;9318;48.644;9.456;2022-10-22T09:37:10;16.50;99.90
18384;DHT22;9318;48.644;9.456;2022-10-22T09:39:39;16.50;99.90
18384;DHT22;9318;48.644;9.456;2022-10-22T09:42:06;16.60;99.90
18384;DHT22;9318;48.644;9.456;2022-10-22T09:44:35;16.70;99.90
18384;DHT22;9318;48.644;9.456;2022-10-22T09:47:05;16.80;99.90
18384;DHT22;9318;48.644;9.456;2022-10-22T09:49:34;16.90;99.90
18384;DHT22;9318;48.644;9.456;2022-10-22T09:52:02;17.00;99.90
18384;DHT22;9318;48.644;9.456;2022-10-22T09:54:43;17.50;99.90
18384;DHT22;9318;48.644;9.456;2022-10-22T09:57:14;17.90;99.90
18384;DHT22;9318;48.644;9.456;2022-10-22T09:59:44;18.10;99.90
18384;DHT22;9318;48.644;9.456;2022-10-22T10:02:17;18.10;99.90
18384;DHT22;9318;48.644;9.456;2022-10-22T10:04:47;18.10;99.90
18384;DHT22;9318;48.644;9.456;2022-10-22T10:07:16;18.10;99.90
18384;DHT22;9318;48.644;9.456;2022-10-22T10:09:43;18.20;99.90
18384;DHT22;9318;48.644;9.456;2022-10-22T10:12:21;18.40;99.90
18384;DHT22;9318;48.644;9.456;2022-10-22T10:14:59;18.70;99.90
18384;DHT22;9318;48.644;9.456;2022-10-22T10:17:35;19.00;99.90
18384;DHT22;9318;48.644;9.456;2022-10-22T10:20:16;19.10;99.90
18384;DHT22;9318;48.644;9.456;2022-10-22T10:22:55;19.00;99.90
18384;DHT22;9318;48.644;9.456;2022-10-22T10:25:47;18.90;99.90
18384;DHT22;9318;48.644;9.456;2022-10-22T10:28:38;19.00;99.90
18384;DHT22;9318;48.644;9.456;2022-10-22T10:31:17;19.00;99.90
18384;DHT22;9318;48.644;9.456;2022-10-22T10:33:55;19.10;99.90
18384;DHT22;9318;48.644;9.456;2022-10-22T10:36:33;19.20;99.90
18384;DHT22;9318;48.644;9.456;2022-10-22T10:39:06;19.50;99.90
18384;DHT22;9318;48.644;9.456;2022-10-22T10:41:47;20.80;99.90
18384;DHT22;9318;48.644;9.456;2022-10-22T10:44:42;22.70;99.90
18384;DHT22;9318;48.644;9.456;2022-10-22T10:47:23;24.00;99.90
18384;DHT22;9318;48.644;9.456;2022-10-22T10:50:09;24.80;99.90
18384;DHT22;9318;48.644;9.456;2022-10-22T10:52:43;25.00;99.90
18384;DHT22;9318;48.644;9.456;2022-10-22T10:55:17;24.80;99.90
18384;DHT22;9318;48.644;9.456;2022-10-22T10:57:53;24.20;99.90
18384;DHT22;9318;48.644;9.456;2022-10-22T11:00:22;23.60;99.90
18384;DHT22;9318;48.644;9.456;2022-10-22T11:05:55;22.40;99.90
18384;DHT22;9318;48.644;9.456;2022-10-22T11:08:27;22.10;99.90
18384;DHT22;9318;48.644;9.456;2022-10-22T11:11:00;21.90;99.90
18384;DHT22;9318;48.644;9.456;2022-10-22T11:13:32;21.70;99.90
18384;DHT22;9318;48.644;9.456;2022-10-22T11:16:05;21.40;99.90
18384;DHT22;9318;48.644;9.456;2022-10-22T11:18:39;21.30;99.90
18384;DHT22;9318;48.644;9.456;2022-10-22T11:21:15;21.10;99.90
18384;DHT22;9318;48.644;9.456;2022-10-22T11:23:47;21.00;99.90
18384;DHT22;9318;48.644;9.456;2022-10-22T11:26:28;21.00;99.90
18384;DHT22;9318;48.644;9.456;2022-10-22T11:28:58;21.00;99.90
18384;DHT22;9318;48.644;9.456;2022-10-22T11:31:29;21.40;99.90
18384;DHT22;9318;48.644;9.456;2022-10-22T11:34:03;21.80;99.90
18384;DHT22;9318;48.644;9.456;2022-10-22T11:36:34;22.50;99.90
18384;DHT22;9318;48.644;9.456;2022-10-22T11:39:03;23.70;99.90
18384;DHT22;9318;48.644;9.456;2022-10-22T11:41:32;25.50;99.90
18384;DHT22;9318;48.644;9.456;2022-10-22T11:44:10;27.50;99.90
18384;DHT22;9318;48.644;9.456;2022-10-22T11:46:54;29.00;99.90
18384;DHT22;9318;48.644;9.456;2022-10-22T11:49:25;29.90;97.60
18384;DHT22;9318;48.644;9.456;2022-10-22T11:52:22;31.00;94.60
18384;DHT22;9318;48.644;9.456;2022-10-22T11:54:53;31.70;91.40
18384;DHT22;9318;48.644;9.456;2022-10-22T11:57:27;31.00;88.70
18384;DHT22;9318;48.644;9.456;2022-10-22T11:59:59;29.90;88.90
18384;DHT22;9318;48.644;9.456;2022-10-22T12:02:41;28.30;91.40
18384;DHT22;9318;48.644;9.456;2022-10-22T12:05:32;27.10;92.30
18384;DHT22;9318;48.644;9.456;2022-10-22T12:08:05;26.50;94.60
18384;DHT22;9318;48.644;9.456;2022-10-22T12:10:57;26.20;96.00
18384;DHT22;9318;48.644;9.456;2022-10-22T12:13:29;26.00;96.20
18384;DHT22;9318;48.644;9.456;2022-10-22T12:15:58;25.60;95.70
18384;DHT22;9318;48.644;9.456;2022-10-22T12:18:33;24.50;95.50
18384;DHT22;9318;48.644;9.456;2022-10-22T12:21:01;23.60;97.40
18384;DHT22;9318;48.644;9.456;2022-10-22T12:23:31;22.90;97.80
18384;DHT22;9318;48.644;9.456;2022-10-22T12:26:03;22.30;98.90
18384;DHT22;9318;48.644;9.456;2022-10-22T12:28:37;21.90;99.90
18384;DHT22;9318;48.644;9.456;2022-10-22T12:31:05;22.10;99.90
18384;DHT22;9318;48.644;9.456;2022-10-22T12:33:32;23.10;99.10
18384;DHT22;9318;48.644;9.456;2022-10-22T12:36:00;23.60;97.50
18384;DHT22;9318;48.644;9.456;2022-10-22T12:38:30;23.60;98.50
18384;DHT22;9318;48.644;9.456;2022-10-22T12:40:58;23.50;99.40
18384;DHT22;9318;48.644;9.456;2022-10-22T12:43:27;23.10;98.90
18384;DHT22;9318;48.644;9.456;2022-10-22T12:45:55;23.20;98.70
18384;DHT22;9318;48.644;9.456;2022-10-22T12:48:25;23.00;99.90
18384;DHT22;9318;48.644;9.456;2022-10-22T12:50:54;22.70;99.80
18384;DHT22;9318;48.644;9.456;2022-10-22T12:53:26;22.40;99.90
18384;DHT22;9318;48.644;9.456;2022-10-22T12:55:58;22.00;99.50
18384;DHT22;9318;48.644;9.456;2022-10-22T12:58:29;21.60;99.90
18384;DHT22;9318;48.644;9.456;2022-10-22T13:00:59;21.50;99.90
18384;DHT22;9318;48.644;9.456;2022-10-22T13:03:30;21.40;99.90
18384;DHT22;9318;48.644;9.456;2022-10-22T13:06:11;21.40;99.90
18384;DHT22;9318;48.644;9.456;2022-10-22T13:08:39;21.50;99.90
18384;DHT22;9318;48.644;9.456;2022-10-22T13:11:09;21.90;99.90
18384;DHT22;9318;48.644;9.456;2022-10-22T13:13:42;23.30;98.60
18384;DHT22;9318;48.644;9.456;2022-10-22T13:16:18;25.10;97.60
18384;DHT22;9318;48.644;9.456;2022-10-22T13:18:47;25.60;95.90
18384;DHT22;9318;48.644;9.456;2022-10-22T13:21:27;25.50;93.90
18384;DHT22;9318;48.644;9.456;2022-10-22T13:23:57;25.60;94.20
18384;DHT22;9318;48.644;9.456;2022-10-22T13:26:32;26.80;94.50
18384;DHT22;9318;48.644;9.456;2022-10-22T13:29:00;28.70;93.80
18384;DHT22;9318;48.644;9.456;2022-10-22T13:31:30;30.40;85.30
18384;DHT22;9318;48.644;9.456;2022-10-22T13:34:00;31.60;82.90
18384;DHT22;9318;48.644;9.456;2022-10-22T13:36:27;32.40;82.00
18384;DHT22;9318;48.644;9.456;2022-10-22T13:38:55;33.00;78.00
18384;DHT22;9318;48.644;9.456;2022-10-22T13:41:24;32.90;77.40
18384;DHT22;9318;48.644;9.456;2022-10-22T13:43:53;32.20;71.20
18384;DHT22;9318;48.644;9.456;2022-10-22T13:46:21;31.00;74.10
18384;DHT22;9318;48.644;9.456;2022-10-22T13:48:51;29.70;76.30
18384;DHT22;9318;48.644;9.456;2022-10-22T13:51:22;28.60;75.80
18384;DHT22;9318;48.644;9.456;2022-10-22T13:53:51;27.50;78.10
18384;DHT22;9318;48.644;9.456;2022-10-22T13:56:20;26.70;88.60
18384;DHT22;9318;48.644;9.456;2022-10-22T13:58:49;25.70;88.40
18384;DHT22;9318;48.644;9.456;2022-10-22T14:01:20;24.90;93.00
18384;DHT22;9318;48.644;9.456;2022-10-22T14:03:49;24.20;88.10
18384;DHT22;9318;48.644;9.456;2022-10-22T14:06:19;23.50;86.50
18384;DHT22;9318;48.644;9.456;2022-10-22T14:08:48;22.90;88.20
18384;DHT22;9318;48.644;9.456;2022-10-22T14:11:18;22.50;89.60
18384;DHT22;9318;48.644;9.456;2022-10-22T14:13:46;22.10;92.50
18384;DHT22;9318;48.644;9.456;2022-10-22T14:16:17;21.90;93.60
18384;DHT22;9318;48.644;9.456;2022-10-22T14:18:47;21.60;93.20
18384;DHT22;9318;48.644;9.456;2022-10-22T14:21:15;21.40;94.00
18384;DHT22;9318;48.644;9.456;2022-10-22T14:23:45;21.10;93.80
18384;DHT22;9318;48.644;9.456;2022-10-22T14:26:21;21.00;95.50
18384;DHT22;9318;48.644;9.456;2022-10-22T14:28:51;19.80;93.70
18384;DHT22;9318;48.644;9.456;2022-10-22T14:31:18;20.70;95.00
18384;DHT22;9318;48.644;9.456;2022-10-22T14:33:48;20.50;94.60
18384;DHT22;9318;48.644;9.456;2022-10-22T14:36:16;20.40;96.80
18384;DHT22;9318;48.644;9.456;2022-10-22T14:38:44;20.20;96.70
18384;DHT22;9318;48.644;9.456;2022-10-22T14:41:17;20.20;97.20
18384;DHT22;9318;48.644;9.456;2022-10-22T14:43:46;20.10;96.80
18384;DHT22;9318;48.644;9.456;2022-10-22T14:46:14;20.00;97.20
18384;DHT22;9318;48.644;9.456;2022-10-22T14:48:42;19.90;98.10
18384;DHT22;9318;48.644;9.456;2022-10-22T14:51:13;19.80;99.90
18384;DHT22;9318;48.644;9.456;2022-10-22T14:53:42;19.80;99.90
18384;DHT22;9318;48.644;9.456;2022-10-22T14:56:10;19.70;99.90
18384;DHT22;9318;48.644;9.456;2022-10-22T14:58:38;19.60;99.90
18384;DHT22;9318;48.644;9.456;2022-10-22T15:01:06;19.50;99.90
18384;DHT22;9318;48.644;9.456;2022-10-22T15:03:34;19.40;99.90
18384;DHT22;9318;48.644;9.456;2022-10-22T15:06:01;19.40;99.90
18384;DHT22;9318;48.644;9.456;2022-10-22T15:08:30;19.30;99.90
18384;DHT22;9318;48.644;9.456;2022-10-22T15:10:59;19.30;99.90
18384;DHT22;9318;48.644;9.456;2022-10-22T15:13:27;19.20;99.90
18384;DHT22;9318;48.644;9.456;2022-10-22T15:15:55;19.20;99.90
18384;DHT22;9318;48.644;9.456;2022-10-22T15:18:22;19.20;99.90
18384;DHT22;9318;48.644;9.456;2022-10-22T15:20:57;19.10;99.90
18384;DHT22;9318;48.644;9.456;2022-10-22T15:23:24;19.10;99.90
18384;DHT22;9318;48.644;9.456;2022-10-22T15:25:54;19.10;99.90
18384;DHT22;9318;48.644;9.456;2022-10-22T15:28:21;19.00;99.90
18384;DHT22;9318;48.644;9.456;2022-10-22T15:30:53;19.00;99.90
18384;DHT22;9318;48.644;9.456;2022-10-22T15:33:21;19.00;99.90
18384;DHT22;9318;48.644;9.456;2022-10-22T15:35:48;19.00;99.90
18384;DHT22;9318;48.644;9.456;2022-10-22T15:38:16;18.90;99.90
18384;DHT22;9318;48.644;9.456;2022-10-22T15:40:44;18.90;99.90
18384;DHT22;9318;48.644;9.456;2022-10-22T15:43:12;18.90;99.90
18384;DHT22;9318;48.644;9.456;2022-10-22T15:45:40;18.80;99.90
18384;DHT22;9318;48.644;9.456;2022-10-22T15:48:07;18.70;99.90
18384;DHT22;9318;48.644;9.456;2022-10-22T15:50:37;18.60;99.90
18384;DHT22;9318;48.644;9.456;2022-10-22T15:53:04;18.40;99.90
18384;DHT22;9318;48.644;9.456;2022-10-22T15:55:31;18.30;99.90
18384;DHT22;9318;48.644;9.456;2022-10-22T15:57:59;18.20;99.90
18384;DHT22;9318;48.644;9.456;2022-10-22T16:00:28;18.10;99.90
18384;DHT22;9318;48.644;9.456;2022-10-22T16:02:55;18.00;99.90
18384;DHT22;9318;48.644;9.456;2022-10-22T16:05:22;17.90;99.90
18384;DHT22;9318;48.644;9.456;2022-10-22T16:07:50;17.80;99.90
18384;DHT22;9318;48.644;9.456;2022-10-22T16:10:20;17.70;99.90
18384;DHT22;9318;48.644;9.456;2022-10-22T16:12:47;17.60;99.90
18384;DHT22;9318;48.644;9.456;2022-10-22T16:15:16;17.50;99.90
18384;DHT22;9318;48.644;9.456;2022-10-22T16:17:45;17.40;99.90